KDAA

Davison AAF Airport

Fort Belvoir, Virginia, USA
METAR KDAA 182156Z AUTO 16004KT 10SM CLR 32/24 A2992 RMK AO2 SLP134 T03160242 $
Observed Flight Rules
Jun-18 @ 21:56 UTC (44 minutes ago) Visual Flight Rules
Wind Visibility Clouds
160° at 4 knots 10 miles
  • Clear skies
Temperatures Readings
Current 32°C / 90°F
Dewpoint 24°C / 75°F
Humidity 63%
Altimeter 29.92" Hg
Pressure 1013.4 hPa
Elevation 21
METAR KDAA 182156Z AUTO 16004KT 10SM CLR 32/24 A2992 RMK AO2 SLP134 T03160242 $
Observed Flight Rules
Jun-18 @ 21:56 UTC
(44 minutes ago)
VFR
Wind Visibility
160° at 4 knots 10 miles
Clouds
  • Clear skies
Temperature Dewpoint
32°C / 90°F 24°C / 75°F
Humidity Altimeter Pressure
63% 29.92" Hg 1013.4 hPa